Corunna, MI

7:13 AM EDT on July 23, 2016 (GMT -0400)
State Farm Insurance | | Change Station

Elev 735 ft 43.00 °N, 84.16 °W | Updated 30 seconds ago

Clear
Clear
71.4 °F
Feels Like 71.4 °F
N
0.4
Wind Variable Wind from WSW
Gusts 2.5 mph

Today
High -- | Low -- °F
--% Chance of Precip.
Yesterday
High -- | Low -- °F
Precip. -- in
Pressure 30.00 in
Visibility 4.0 miles
Clouds Clear
Dew Point 70 °F
Humidity 94%
Rainfall 0.00 in
Snow Depth Not available.
6:18 AM 9:06 PM
Waning Gibbous, 86% visible
METAR KRNP 231054Z AUTO 26003KT 4SM BR CLR 20/20 A3000 RMK AO2 T01970197
Pressure 30.00 in
Visibility 4.0 miles
Clouds Clear
Dew Point 70 °F
Humidity 94%
Rainfall 0.00 in
Snow Depth Not available.
6:18 AM 9:06 PM
Waning Gibbous, 86% visible
METAR KRNP 231054Z AUTO 26003KT 4SM BR CLR 20/20 A3000 RMK AO2 T01970197

10-Day Weather Forecast

Almanac

Astronomy

Jul. 23, 2016 Rise Set
Actual Time
Civil Twilight
Nautical Twilight
Astronomical Twilight
Moon
Length of Visible Light
Length of Day
Tomorrow will be .
, % of the Moon is Illuminated

Today's Extremes

State Highs State Lows

Community

WunderPhotos

Upload Photos

1,926,798 photos uploaded!

WunderBlog® & News

Nearby

Air Quality

  Air Quality AQ Index Pollutant
Not available.

Snow Depth

Station Depth Elevation

Earthquake Activity

City Distance Mag. Time & Date
Minimum magnitude displayed is 2.5.

Coastal Water Temperatures

Place Temperature

Stations

Nearby Weather Stations

Station Location Temp. Windchill Dew Point Humidity Wind Precip. Elev Updated Type
                   

Watches & Warnings

There are currently no watches in effect.